Ukiah, California
Current Conditions -  °F | °C
As of 4:56 AM on Wednesday 26 Nov 2014 (Local Time) from KUKI Reporting Station
Clear Clear  
Wind Chill: 38°   Ceiling: Unl
Heat Index: 38°   Visibility: 10mi
Dew Point: 35°   Wind: 0mph
Humidity: 89%   Direction: NA
Pressure: 30.34"   Gusts: NA
Location:  39.15°N, 123.2°W
Report Text: KUKI 261256Z AUTO 00000KT 10SM CLR 03/02 A3034 RMK AO2 SLP272 T00330017
Loading
Personal Weather Stations






























Interactive Weather Map New forecast layout! Learn more

10-Day Weather Forecast

Advertisements
Track Severe Weather on mobile